sensor_id;sensor_type;location;lat;lon;timestamp;pressure;altitude;pressure_sealevel;temperature;humidity
77454;BME280;66538;53.150;18.160;2023-07-13T00:01:48;100902.88;;;17.64;86.72
77454;BME280;66538;53.150;18.160;2023-07-13T00:04:17;100901.98;;;17.60;86.65
77454;BME280;66538;53.150;18.160;2023-07-13T00:06:45;100895.00;;;17.58;86.71
77454;BME280;66538;53.150;18.160;2023-07-13T00:09:13;100892.80;;;17.54;86.88
77454;BME280;66538;53.150;18.160;2023-07-13T00:11:41;100891.45;;;17.50;87.01
77454;BME280;66538;53.150;18.160;2023-07-13T00:14:08;100891.66;;;17.48;87.07
77454;BME280;66538;53.150;18.160;2023-07-13T00:16:37;100895.42;;;17.47;87.31
77454;BME280;66538;53.150;18.160;2023-07-13T00:19:05;100896.36;;;17.47;87.55
77454;BME280;66538;53.150;18.160;2023-07-13T00:21:32;100902.45;;;17.47;87.36
77454;BME280;66538;53.150;18.160;2023-07-13T00:23:59;100898.64;;;17.46;87.43
77454;BME280;66538;53.150;18.160;2023-07-13T00:26:27;100898.70;;;17.44;87.40
77454;BME280;66538;53.150;18.160;2023-07-13T00:28:54;100903.58;;;17.43;87.44
77454;BME280;66538;53.150;18.160;2023-07-13T00:31:20;100908.49;;;17.41;87.46
77454;BME280;66538;53.150;18.160;2023-07-13T00:33:47;100909.27;;;17.38;87.22
77454;BME280;66538;53.150;18.160;2023-07-13T00:36:14;100910.17;;;17.35;87.37
77454;BME280;66538;53.150;18.160;2023-07-13T00:38:41;100914.73;;;17.34;87.45
77454;BME280;66538;53.150;18.160;2023-07-13T00:41:08;100920.84;;;17.34;87.65
77454;BME280;66538;53.150;18.160;2023-07-13T00:43:34;100920.98;;;17.35;87.64
77454;BME280;66538;53.150;18.160;2023-07-13T00:48:42;100929.98;;;17.34;87.49
77454;BME280;66538;53.150;18.160;2023-07-13T00:51:11;100933.11;;;17.35;87.58
77454;BME280;66538;53.150;18.160;2023-07-13T00:53:41;100933.89;;;17.34;87.45
77454;BME280;66538;53.150;18.160;2023-07-13T00:56:08;100939.46;;;17.33;87.62
77454;BME280;66538;53.150;18.160;2023-07-13T00:58:35;100945.00;;;17.31;87.58
77454;BME280;66538;53.150;18.160;2023-07-13T01:01:02;100948.41;;;17.30;87.60
77454;BME280;66538;53.150;18.160;2023-07-13T01:03:29;100954.29;;;17.30;87.74
77454;BME280;66538;53.150;18.160;2023-07-13T01:05:56;100961.48;;;17.30;87.69
77454;BME280;66538;53.150;18.160;2023-07-13T01:08:22;100970.61;;;17.29;87.79
77454;BME280;66538;53.150;18.160;2023-07-13T01:10:56;100964.41;;;17.29;87.67
77454;BME280;66538;53.150;18.160;2023-07-13T01:13:24;100959.42;;;17.28;87.87
77454;BME280;66538;53.150;18.160;2023-07-13T01:15:52;100960.27;;;17.28;87.73
77454;BME280;66538;53.150;18.160;2023-07-13T01:18:23;100953.70;;;17.27;87.64
77454;BME280;66538;53.150;18.160;2023-07-13T01:20:55;100951.81;;;17.25;87.71
77454;BME280;66538;53.150;18.160;2023-07-13T01:23:24;100948.40;;;17.23;87.69
77454;BME280;66538;53.150;18.160;2023-07-13T01:25:52;100940.54;;;17.21;87.54
77454;BME280;66538;53.150;18.160;2023-07-13T01:28:19;100936.86;;;17.18;87.35
77454;BME280;66538;53.150;18.160;2023-07-13T01:30:46;100935.69;;;17.14;87.26
77454;BME280;66538;53.150;18.160;2023-07-13T01:33:15;100935.74;;;17.11;87.26
77454;BME280;66538;53.150;18.160;2023-07-13T01:35:43;100936.51;;;17.09;87.35
77454;BME280;66538;53.150;18.160;2023-07-13T01:38:15;100943.19;;;17.07;87.57
77454;BME280;66538;53.150;18.160;2023-07-13T01:40:43;100947.66;;;17.06;87.47
77454;BME280;66538;53.150;18.160;2023-07-13T01:43:10;100946.06;;;17.06;87.67
77454;BME280;66538;53.150;18.160;2023-07-13T01:45:37;100946.42;;;17.07;87.78
77454;BME280;66538;53.150;18.160;2023-07-13T01:48:04;100949.43;;;17.08;87.75
77454;BME280;66538;53.150;18.160;2023-07-13T01:50:34;100955.88;;;17.09;87.81
77454;BME280;66538;53.150;18.160;2023-07-13T01:53:00;100962.55;;;17.10;87.77
77454;BME280;66538;53.150;18.160;2023-07-13T01:55:29;100967.48;;;17.11;87.81
77454;BME280;66538;53.150;18.160;2023-07-13T01:57:56;100975.50;;;17.13;87.58
77454;BME280;66538;53.150;18.160;2023-07-13T02:00:23;100980.05;;;17.16;87.82
77454;BME280;66538;53.150;18.160;2023-07-13T02:02:51;100977.34;;;17.19;87.90
77454;BME280;66538;53.150;18.160;2023-07-13T02:05:18;100974.66;;;17.22;87.64
77454;BME280;66538;53.150;18.160;2023-07-13T02:07:45;100970.66;;;17.21;87.57
77454;BME280;66538;53.150;18.160;2023-07-13T02:10:12;100964.11;;;17.18;87.48
77454;BME280;66538;53.150;18.160;2023-07-13T02:12:39;100963.31;;;17.13;87.32
77454;BME280;66538;53.150;18.160;2023-07-13T02:15:06;100965.11;;;17.09;87.34
77454;BME280;66538;53.150;18.160;2023-07-13T02:17:34;100963.33;;;17.07;87.40
77454;BME280;66538;53.150;18.160;2023-07-13T02:20:03;100961.01;;;17.05;87.51
77454;BME280;66538;53.150;18.160;2023-07-13T02:22:31;100959.43;;;17.04;87.74
77454;BME280;66538;53.150;18.160;2023-07-13T02:24:57;100958.02;;;17.07;87.98
77454;BME280;66538;53.150;18.160;2023-07-13T02:27:25;100954.06;;;17.07;87.76
77454;BME280;66538;53.150;18.160;2023-07-13T02:29:52;100948.45;;;17.07;87.62
77454;BME280;66538;53.150;18.160;2023-07-13T02:32:21;100942.02;;;17.03;87.52
77454;BME280;66538;53.150;18.160;2023-07-13T02:34:47;100940.40;;;16.99;87.67
77454;BME280;66538;53.150;18.160;2023-07-13T02:37:14;100934.11;;;16.95;87.68
77454;BME280;66538;53.150;18.160;2023-07-13T02:39:41;100932.83;;;16.93;87.81
77454;BME280;66538;53.150;18.160;2023-07-13T02:42:07;100938.90;;;16.92;87.88
77454;BME280;66538;53.150;18.160;2023-07-13T02:44:34;100936.02;;;16.91;88.13
77454;BME280;66538;53.150;18.160;2023-07-13T02:47:01;100941.77;;;16.93;88.29
77454;BME280;66538;53.150;18.160;2023-07-13T02:49:27;100947.50;;;16.95;88.32
77454;BME280;66538;53.150;18.160;2023-07-13T02:51:54;100947.27;;;16.96;88.27
77454;BME280;66538;53.150;18.160;2023-07-13T02:54:20;100949.95;;;16.99;88.36
77454;BME280;66538;53.150;18.160;2023-07-13T02:56:47;100946.90;;;17.00;88.30
77454;BME280;66538;53.150;18.160;2023-07-13T02:59:14;100946.00;;;17.04;88.42
77454;BME280;66538;53.150;18.160;2023-07-13T03:01:41;100949.10;;;17.05;88.24
77454;BME280;66538;53.150;18.160;2023-07-13T03:04:07;100941.33;;;17.07;88.43
77454;BME280;66538;53.150;18.160;2023-07-13T03:06:35;100934.73;;;17.08;88.34
77454;BME280;66538;53.150;18.160;2023-07-13T03:09:02;100933.50;;;17.09;88.16
77454;BME280;66538;53.150;18.160;2023-07-13T03:11:30;100933.85;;;17.08;87.99
77454;BME280;66538;53.150;18.160;2023-07-13T03:14:04;100935.83;;;17.05;88.04
77454;BME280;66538;53.150;18.160;2023-07-13T03:16:34;100936.70;;;17.03;88.13
77454;BME280;66538;53.150;18.160;2023-07-13T03:19:00;100930.12;;;17.03;88.13
77454;BME280;66538;53.150;18.160;2023-07-13T03:21:27;100933.26;;;17.02;88.17
77454;BME280;66538;53.150;18.160;2023-07-13T03:23:54;100940.50;;;17.02;88.24
77454;BME280;66538;53.150;18.160;2023-07-13T03:26:22;100942.12;;;17.03;88.16
77454;BME280;66538;53.150;18.160;2023-07-13T03:28:49;100939.64;;;17.04;88.25
77454;BME280;66538;53.150;18.160;2023-07-13T03:31:21;100944.95;;;17.07;88.38
77454;BME280;66538;53.150;18.160;2023-07-13T03:33:48;100954.14;;;17.11;88.21
77454;BME280;66538;53.150;18.160;2023-07-13T03:36:19;100954.46;;;17.11;87.98
77454;BME280;66538;53.150;18.160;2023-07-13T03:38:52;100956.73;;;17.12;88.06
77454;BME280;66538;53.150;18.160;2023-07-13T03:41:22;100956.31;;;17.17;88.06
77454;BME280;66538;53.150;18.160;2023-07-13T03:43:50;100955.09;;;17.24;88.21
77454;BME280;66538;53.150;18.160;2023-07-13T03:46:17;100962.48;;;17.30;88.27
77454;BME280;66538;53.150;18.160;2023-07-13T03:48:46;100966.34;;;17.34;88.21
77454;BME280;66538;53.150;18.160;2023-07-13T03:51:14;100962.80;;;17.37;88.28
77454;BME280;66538;53.150;18.160;2023-07-13T03:53:43;100961.23;;;17.39;88.25
77454;BME280;66538;53.150;18.160;2023-07-13T03:56:11;100966.35;;;17.42;88.17
77454;BME280;66538;53.150;18.160;2023-07-13T03:58:39;100970.25;;;17.44;88.28
77454;BME280;66538;53.150;18.160;2023-07-13T04:01:15;100979.27;;;17.46;88.19
77454;BME280;66538;53.150;18.160;2023-07-13T04:03:43;100983.48;;;17.50;88.15
77454;BME280;66538;53.150;18.160;2023-07-13T04:06:21;100982.83;;;17.52;88.06
77454;BME280;66538;53.150;18.160;2023-07-13T04:08:50;100986.30;;;17.56;88.26
77454;BME280;66538;53.150;18.160;2023-07-13T04:11:19;100992.92;;;17.61;88.28
77454;BME280;66538;53.150;18.160;2023-07-13T04:13:46;100987.27;;;17.64;88.06
77454;BME280;66538;53.150;18.160;2023-07-13T04:16:15;100992.77;;;17.66;88.05
77454;BME280;66538;53.150;18.160;2023-07-13T04:18:42;100999.17;;;17.65;87.99
77454;BME280;66538;53.150;18.160;2023-07-13T04:21:08;100999.90;;;17.67;87.90
77454;BME280;66538;53.150;18.160;2023-07-13T04:23:37;100995.88;;;17.69;88.01
77454;BME280;66538;53.150;18.160;2023-07-13T04:26:04;100992.73;;;17.70;87.87
77454;BME280;66538;53.150;18.160;2023-07-13T04:28:31;100992.50;;;17.71;87.81
77454;BME280;66538;53.150;18.160;2023-07-13T04:30:57;100984.23;;;17.70;87.81
77454;BME280;66538;53.150;18.160;2023-07-13T04:33:24;100978.70;;;17.69;87.80
77454;BME280;66538;53.150;18.160;2023-07-13T04:35:52;100979.76;;;17.71;87.82
77454;BME280;66538;53.150;18.160;2023-07-13T04:38:24;100987.32;;;17.76;87.87
77454;BME280;66538;53.150;18.160;2023-07-13T04:40:52;101000.37;;;17.87;87.96
77454;BME280;66538;53.150;18.160;2023-07-13T04:43:18;101003.14;;;17.97;88.13
77454;BME280;66538;53.150;18.160;2023-07-13T04:45:45;100998.48;;;18.10;87.93
77454;BME280;66538;53.150;18.160;2023-07-13T04:48:12;100992.48;;;18.15;87.69
77454;BME280;66538;53.150;18.160;2023-07-13T04:50:38;100994.26;;;18.21;87.79
77454;BME280;66538;53.150;18.160;2023-07-13T04:53:05;101002.84;;;18.32;87.82
77454;BME280;66538;53.150;18.160;2023-07-13T04:55:32;101010.84;;;18.42;87.38
77454;BME280;66538;53.150;18.160;2023-07-13T04:57:59;101025.05;;;18.57;86.84
77454;BME280;66538;53.150;18.160;2023-07-13T05:00:26;101039.55;;;18.75;86.77
77454;BME280;66538;53.150;18.160;2023-07-13T05:02:55;101043.48;;;18.96;86.54
77454;BME280;66538;53.150;18.160;2023-07-13T05:05:21;101042.75;;;19.16;86.12
77454;BME280;66538;53.150;18.160;2023-07-13T05:07:48;101038.17;;;19.31;85.66
77454;BME280;66538;53.150;18.160;2023-07-13T05:10:15;101037.65;;;19.51;85.04
77454;BME280;66538;53.150;18.160;2023-07-13T05:12:42;101042.83;;;19.68;84.63
77454;BME280;66538;53.150;18.160;2023-07-13T05:15:09;101045.24;;;19.81;84.15
77454;BME280;66538;53.150;18.160;2023-07-13T05:17:36;101040.58;;;19.94;84.02
77454;BME280;66538;53.150;18.160;2023-07-13T05:20:03;101039.20;;;20.01;83.47
77454;BME280;66538;53.150;18.160;2023-07-13T05:22:29;101040.24;;;20.07;82.48
77454;BME280;66538;53.150;18.160;2023-07-13T05:24:56;101039.33;;;20.14;82.20
77454;BME280;66538;53.150;18.160;2023-07-13T05:27:23;101039.34;;;20.19;82.62
77454;BME280;66538;53.150;18.160;2023-07-13T05:29:49;101038.30;;;20.25;83.11
77454;BME280;66538;53.150;18.160;2023-07-13T05:32:17;101041.83;;;20.39;83.36
77454;BME280;66538;53.150;18.160;2023-07-13T05:34:44;101043.09;;;20.55;82.82
77454;BME280;66538;53.150;18.160;2023-07-13T05:37:10;101039.92;;;20.69;81.23
77454;BME280;66538;53.150;18.160;2023-07-13T05:39:37;101044.02;;;20.79;80.36
77454;BME280;66538;53.150;18.160;2023-07-13T05:42:04;101050.30;;;20.91;80.10
77454;BME280;66538;53.150;18.160;2023-07-13T05:44:31;101063.09;;;20.96;77.85
77454;BME280;66538;53.150;18.160;2023-07-13T05:46:57;101061.44;;;21.09;77.88
77454;BME280;66538;53.150;18.160;2023-07-13T05:49:24;101065.40;;;21.24;77.44
77454;BME280;66538;53.150;18.160;2023-07-13T05:51:50;101060.45;;;21.36;76.83
77454;BME280;66538;53.150;18.160;2023-07-13T05:54:17;101055.79;;;21.45;77.01
77454;BME280;66538;53.150;18.160;2023-07-13T05:56:44;101056.23;;;21.54;76.86
77454;BME280;66538;53.150;18.160;2023-07-13T05:59:10;101055.74;;;21.58;76.09
77454;BME280;66538;53.150;18.160;2023-07-13T06:01:37;101058.95;;;21.63;75.51
77454;BME280;66538;53.150;18.160;2023-07-13T06:04:03;101058.02;;;21.69;76.14
77454;BME280;66538;53.150;18.160;2023-07-13T06:06:30;101058.17;;;21.72;76.36
77454;BME280;66538;53.150;18.160;2023-07-13T06:08:57;101063.77;;;21.78;76.15
77454;BME280;66538;53.150;18.160;2023-07-13T06:11:25;101064.19;;;21.81;76.04
77454;BME280;66538;53.150;18.160;2023-07-13T06:13:53;101056.38;;;21.81;76.08
77454;BME280;66538;53.150;18.160;2023-07-13T06:16:20;101057.27;;;21.89;75.50
77454;BME280;66538;53.150;18.160;2023-07-13T06:18:47;101050.98;;;21.90;75.29
77454;BME280;66538;53.150;18.160;2023-07-13T06:21:20;101053.35;;;21.88;74.80
77454;BME280;66538;53.150;18.160;2023-07-13T06:23:48;101051.58;;;21.87;75.10
77454;BME280;66538;53.150;18.160;2023-07-13T06:26:16;101045.87;;;21.88;74.97
77454;BME280;66538;53.150;18.160;2023-07-13T06:28:43;101049.58;;;21.91;74.56
77454;BME280;66538;53.150;18.160;2023-07-13T06:31:12;101046.55;;;21.93;74.53
77454;BME280;66538;53.150;18.160;2023-07-13T06:33:39;101049.19;;;21.96;73.63
77454;BME280;66538;53.150;18.160;2023-07-13T06:36:07;101050.84;;;22.00;73.67
77454;BME280;66538;53.150;18.160;2023-07-13T06:38:34;101052.09;;;22.06;73.04
77454;BME280;66538;53.150;18.160;2023-07-13T06:41:01;101048.05;;;22.10;72.76
77454;BME280;66538;53.150;18.160;2023-07-13T06:43:28;101050.78;;;22.17;72.52
77454;BME280;66538;53.150;18.160;2023-07-13T06:45:56;101054.28;;;22.28;72.39
77454;BME280;66538;53.150;18.160;2023-07-13T06:48:23;101055.24;;;22.39;71.27
77454;BME280;66538;53.150;18.160;2023-07-13T06:50:50;101053.17;;;22.41;70.24
77454;BME280;66538;53.150;18.160;2023-07-13T06:53:18;101050.63;;;22.43;70.84
77454;BME280;66538;53.150;18.160;2023-07-13T06:55:45;101059.66;;;22.43;70.62
77454;BME280;66538;53.150;18.160;2023-07-13T06:58:12;101067.58;;;22.51;70.30
77454;BME280;66538;53.150;18.160;2023-07-13T07:00:39;101071.95;;;22.65;69.62
77454;BME280;66538;53.150;18.160;2023-07-13T07:03:07;101079.42;;;22.82;69.22
77454;BME280;66538;53.150;18.160;2023-07-13T07:05:33;101072.95;;;22.97;68.87
77454;BME280;66538;53.150;18.160;2023-07-13T07:08:00;101069.93;;;23.13;68.77
77454;BME280;66538;53.150;18.160;2023-07-13T07:10:29;101072.95;;;23.31;68.89
77454;BME280;66538;53.150;18.160;2023-07-13T07:12:56;101071.53;;;23.48;68.51
77454;BME280;66538;53.150;18.160;2023-07-13T07:15:26;101070.48;;;23.63;67.20
77454;BME280;66538;53.150;18.160;2023-07-13T07:17:53;101074.54;;;23.74;66.40
77454;BME280;66538;53.150;18.160;2023-07-13T07:20:20;101080.14;;;23.81;65.69
77454;BME280;66538;53.150;18.160;2023-07-13T07:22:47;101081.30;;;23.88;65.83
77454;BME280;66538;53.150;18.160;2023-07-13T07:25:15;101085.94;;;23.95;65.68
77454;BME280;66538;53.150;18.160;2023-07-13T07:27:42;101080.16;;;23.95;65.32
77454;BME280;66538;53.150;18.160;2023-07-13T07:30:09;101076.93;;;23.91;65.91
77454;BME280;66538;53.150;18.160;2023-07-13T07:32:36;101073.99;;;23.96;66.07
77454;BME280;66538;53.150;18.160;2023-07-13T07:35:03;101076.29;;;24.08;65.84
77454;BME280;66538;53.150;18.160;2023-07-13T07:37:29;101072.97;;;24.21;65.48
77454;BME280;66538;53.150;18.160;2023-07-13T07:39:56;101071.34;;;24.33;65.01
77454;BME280;66538;53.150;18.160;2023-07-13T07:42:22;101070.74;;;24.40;64.80
77454;BME280;66538;53.150;18.160;2023-07-13T07:44:49;101071.99;;;24.39;64.42
77454;BME280;66538;53.150;18.160;2023-07-13T07:47:16;101076.52;;;24.34;63.90
77454;BME280;66538;53.150;18.160;2023-07-13T07:49:42;101075.94;;;24.25;63.93
77454;BME280;66538;53.150;18.160;2023-07-13T07:52:09;101074.09;;;24.24;63.73
77454;BME280;66538;53.150;18.160;2023-07-13T07:54:35;101076.64;;;24.17;62.90
77454;BME280;66538;53.150;18.160;2023-07-13T07:57:02;101081.66;;;24.08;62.99
77454;BME280;66538;53.150;18.160;2023-07-13T07:59:29;101086.57;;;24.02;63.09
77454;BME280;66538;53.150;18.160;2023-07-13T08:01:56;101088.84;;;24.09;62.98
77454;BME280;66538;53.150;18.160;2023-07-13T08:04:22;101084.59;;;24.15;62.33
77454;BME280;66538;53.150;18.160;2023-07-13T08:06:49;101090.13;;;24.23;63.15
77454;BME280;66538;53.150;18.160;2023-07-13T08:09:15;101093.20;;;24.38;62.54
77454;BME280;66538;53.150;18.160;2023-07-13T08:11:42;101091.48;;;24.50;62.39
77454;BME280;66538;53.150;18.160;2023-07-13T08:14:08;101089.13;;;24.60;62.30
77454;BME280;66538;53.150;18.160;2023-07-13T08:16:35;101089.91;;;24.68;61.82
77454;BME280;66538;53.150;18.160;2023-07-13T08:19:02;101090.64;;;24.71;61.54
77454;BME280;66538;53.150;18.160;2023-07-13T08:21:29;101082.95;;;24.75;61.00
77454;BME280;66538;53.150;18.160;2023-07-13T08:23:55;101083.50;;;24.77;61.20
77454;BME280;66538;53.150;18.160;2023-07-13T08:26:22;101080.75;;;24.78;61.82
77454;BME280;66538;53.150;18.160;2023-07-13T08:28:49;101078.38;;;24.87;60.91
77454;BME280;66538;53.150;18.160;2023-07-13T08:31:15;101078.68;;;24.95;60.28
77454;BME280;66538;53.150;18.160;2023-07-13T08:33:42;101073.80;;;25.06;60.30
77454;BME280;66538;53.150;18.160;2023-07-13T08:36:09;101067.10;;;25.17;59.68
77454;BME280;66538;53.150;18.160;2023-07-13T08:38:35;101068.69;;;25.34;59.67
77454;BME280;66538;53.150;18.160;2023-07-13T08:41:12;101059.67;;;25.48;58.72
77454;BME280;66538;53.150;18.160;2023-07-13T08:43:40;101059.57;;;25.70;57.63
77454;BME280;66538;53.150;18.160;2023-07-13T08:46:24;101056.86;;;25.90;57.57
77454;BME280;66538;53.150;18.160;2023-07-13T08:48:55;101055.13;;;26.18;56.43
77454;BME280;66538;53.150;18.160;2023-07-13T08:51:35;101051.39;;;26.36;56.08
77454;BME280;66538;53.150;18.160;2023-07-13T08:54:32;101050.55;;;26.53;55.36
77454;BME280;66538;53.150;18.160;2023-07-13T08:57:09;101051.57;;;26.75;54.27
77454;BME280;66538;53.150;18.160;2023-07-13T08:59:37;101050.79;;;26.92;53.67
77454;BME280;66538;53.150;18.160;2023-07-13T09:02:16;101047.84;;;27.10;53.61
77454;BME280;66538;53.150;18.160;2023-07-13T09:04:49;101051.95;;;27.24;53.55
77454;BME280;66538;53.150;18.160;2023-07-13T09:07:26;101058.98;;;27.18;52.26
77454;BME280;66538;53.150;18.160;2023-07-13T09:10:08;101059.86;;;26.88;52.35
77454;BME280;66538;53.150;18.160;2023-07-13T09:18:06;101072.84;;;26.02;52.75
77454;BME280;66538;53.150;18.160;2023-07-13T09:20:37;101072.29;;;25.86;52.55
77454;BME280;66538;53.150;18.160;2023-07-13T09:23:14;101074.70;;;25.71;54.22
77454;BME280;66538;53.150;18.160;2023-07-13T09:25:42;101072.84;;;25.43;54.98
77454;BME280;66538;53.150;18.160;2023-07-13T09:28:20;101070.64;;;25.15;54.52
77454;BME280;66538;53.150;18.160;2023-07-13T09:31:09;101069.42;;;24.94;53.92
77454;BME280;66538;53.150;18.160;2023-07-13T09:33:39;101068.14;;;24.84;54.22
77454;BME280;66538;53.150;18.160;2023-07-13T09:36:18;101070.43;;;24.89;54.78
77454;BME280;66538;53.150;18.160;2023-07-13T09:38:48;101071.12;;;25.00;54.97
77454;BME280;66538;53.150;18.160;2023-07-13T09:41:29;101071.84;;;25.10;54.12
77454;BME280;66538;53.150;18.160;2023-07-13T09:44:11;101070.66;;;25.22;53.61
77454;BME280;66538;53.150;18.160;2023-07-13T09:46:47;101067.99;;;25.34;52.35
77454;BME280;66538;53.150;18.160;2023-07-13T09:49:18;101065.40;;;25.51;51.68
77454;BME280;66538;53.150;18.160;2023-07-13T09:51:45;101058.69;;;25.63;51.65
77454;BME280;66538;53.150;18.160;2023-07-13T09:54:24;101057.42;;;25.77;50.28
77454;BME280;66538;53.150;18.160;2023-07-13T09:56:58;101054.54;;;25.92;49.32
77454;BME280;66538;53.150;18.160;2023-07-13T09:59:31;101053.95;;;26.07;49.63
77454;BME280;66538;53.150;18.160;2023-07-13T10:01:57;101051.52;;;26.20;49.76
77454;BME280;66538;53.150;18.160;2023-07-13T10:04:31;101046.77;;;26.36;48.77
77454;BME280;66538;53.150;18.160;2023-07-13T10:07:11;101047.97;;;26.44;48.44
77454;BME280;66538;53.150;18.160;2023-07-13T10:09:40;101043.00;;;26.46;48.76
77454;BME280;66538;53.150;18.160;2023-07-13T10:12:14;101043.39;;;26.50;49.82
77454;BME280;66538;53.150;18.160;2023-07-13T10:14:42;101036.73;;;26.47;50.89
77454;BME280;66538;53.150;18.160;2023-07-13T10:17:12;101041.70;;;26.41;50.25
77454;BME280;66538;53.150;18.160;2023-07-13T10:19:41;101041.58;;;26.35;49.71
77454;BME280;66538;53.150;18.160;2023-07-13T10:24:46;101052.09;;;26.32;51.29
77454;BME280;66538;53.150;18.160;2023-07-13T10:27:18;101051.56;;;26.33;51.41
77454;BME280;66538;53.150;18.160;2023-07-13T10:29:56;101053.02;;;26.34;51.50
77454;BME280;66538;53.150;18.160;2023-07-13T10:32:26;101048.78;;;26.37;51.77
77454;BME280;66538;53.150;18.160;2023-07-13T10:34:53;101045.80;;;26.39;51.48
77454;BME280;66538;53.150;18.160;2023-07-13T10:37:23;101048.94;;;26.41;51.16
77454;BME280;66538;53.150;18.160;2023-07-13T10:39:53;101054.62;;;26.42;51.44
77454;BME280;66538;53.150;18.160;2023-07-13T10:42:29;101051.39;;;26.51;51.35
77454;BME280;66538;53.150;18.160;2023-07-13T10:44:58;101050.57;;;26.64;50.00
77454;BME280;66538;53.150;18.160;2023-07-13T10:47:26;101050.16;;;26.68;49.91
77454;BME280;66538;53.150;18.160;2023-07-13T10:49:53;101048.69;;;26.70;49.49
77454;BME280;66538;53.150;18.160;2023-07-13T10:52:42;101047.61;;;26.72;49.44
77454;BME280;66538;53.150;18.160;2023-07-13T10:55:54;101043.65;;;26.77;49.88
77454;BME280;66538;53.150;18.160;2023-07-13T11:03:38;101047.28;;;26.92;49.25
77454;BME280;66538;53.150;18.160;2023-07-13T11:06:31;101047.30;;;26.93;49.81
77454;BME280;66538;53.150;18.160;2023-07-13T11:15:02;101038.80;;;27.03;49.38
77454;BME280;66538;53.150;18.160;2023-07-13T11:17:38;101049.81;;;26.96;49.74
77454;BME280;66538;53.150;18.160;2023-07-13T11:23:06;101057.90;;;26.90;50.07
77454;BME280;66538;53.150;18.160;2023-07-13T11:25:35;101058.67;;;26.88;50.14
77454;BME280;66538;53.150;18.160;2023-07-13T11:30:37;101059.16;;;27.02;50.36
77454;BME280;66538;53.150;18.160;2023-07-13T11:36:05;101058.98;;;26.84;49.79
77454;BME280;66538;53.150;18.160;2023-07-13T11:38:37;101060.02;;;26.72;50.15
77454;BME280;66538;53.150;18.160;2023-07-13T11:41:10;101059.91;;;26.66;50.33
77454;BME280;66538;53.150;18.160;2023-07-13T11:43:39;101050.79;;;26.68;50.40
77454;BME280;66538;53.150;18.160;2023-07-13T11:46:25;101060.17;;;26.71;50.30
77454;BME280;66538;53.150;18.160;2023-07-13T11:48:53;101057.30;;;26.67;50.79
77454;BME280;66538;53.150;18.160;2023-07-13T11:51:26;101062.58;;;26.53;51.25
77454;BME280;66538;53.150;18.160;2023-07-13T11:53:55;101065.84;;;26.38;51.68
77454;BME280;66538;53.150;18.160;2023-07-13T11:56:23;101070.09;;;26.33;51.85
77454;BME280;66538;53.150;18.160;2023-07-13T11:58:54;101071.20;;;26.29;52.26
77454;BME280;66538;53.150;18.160;2023-07-13T12:01:25;101067.55;;;26.29;51.90
77454;BME280;66538;53.150;18.160;2023-07-13T12:03:53;101064.23;;;26.23;51.77
77454;BME280;66538;53.150;18.160;2023-07-13T12:06:27;101060.04;;;26.24;51.90
77454;BME280;66538;53.150;18.160;2023-07-13T12:09:03;101063.40;;;26.35;51.68
77454;BME280;66538;53.150;18.160;2023-07-13T12:11:35;101062.41;;;26.50;51.62
77454;BME280;66538;53.150;18.160;2023-07-13T12:14:03;101055.89;;;26.81;51.31
77454;BME280;66538;53.150;18.160;2023-07-13T12:16:31;101049.89;;;27.09;50.59
77454;BME280;66538;53.150;18.160;2023-07-13T12:19:00;101050.32;;;27.15;50.66
77454;BME280;66538;53.150;18.160;2023-07-13T12:21:38;101044.09;;;27.19;50.24
77454;BME280;66538;53.150;18.160;2023-07-13T12:24:14;101043.35;;;27.34;49.77
77454;BME280;66538;53.150;18.160;2023-07-13T12:26:41;101043.46;;;27.36;50.27
77454;BME280;66538;53.150;18.160;2023-07-13T12:29:08;101050.19;;;27.43;50.11
77454;BME280;66538;53.150;18.160;2023-07-13T12:34:10;101041.11;;;27.44;49.79
77454;BME280;66538;53.150;18.160;2023-07-13T12:37:01;101038.38;;;27.42;49.75
77454;BME280;66538;53.150;18.160;2023-07-13T12:42:27;101035.08;;;27.55;48.82
77454;BME280;66538;53.150;18.160;2023-07-13T12:47:39;101032.61;;;27.98;47.94
77454;BME280;66538;53.150;18.160;2023-07-13T12:51:00;101022.94;;;28.50;47.13
77454;BME280;66538;53.150;18.160;2023-07-13T12:53:05;101019.95;;;28.96;45.72
77454;BME280;66538;53.150;18.160;2023-07-13T12:55:53;101017.07;;;29.30;44.62
77454;BME280;66538;53.150;18.160;2023-07-13T12:58:26;101020.95;;;29.45;43.94
77454;BME280;66538;53.150;18.160;2023-07-13T13:00:56;101018.48;;;29.57;43.05
77454;BME280;66538;53.150;18.160;2023-07-13T13:03:30;101013.31;;;29.49;42.35
77454;BME280;66538;53.150;18.160;2023-07-13T13:06:23;101014.88;;;29.36;42.48
77454;BME280;66538;53.150;18.160;2023-07-13T13:08:58;101017.34;;;29.44;42.24
77454;BME280;66538;53.150;18.160;2023-07-13T13:11:27;101021.33;;;29.43;41.03
77454;BME280;66538;53.150;18.160;2023-07-13T13:13:54;101022.83;;;29.40;40.77
77454;BME280;66538;53.150;18.160;2023-07-13T13:16:50;101025.23;;;29.72;39.73
77454;BME280;66538;53.150;18.160;2023-07-13T13:19:19;101027.84;;;30.33;37.42
77454;BME280;66538;53.150;18.160;2023-07-13T13:21:48;101030.02;;;30.10;37.24
77454;BME280;66538;53.150;18.160;2023-07-13T13:24:19;101030.57;;;29.94;39.52
77454;BME280;66538;53.150;18.160;2023-07-13T13:26:47;101033.73;;;29.75;40.75
77454;BME280;66538;53.150;18.160;2023-07-13T13:29:21;101028.55;;;29.65;40.98
77454;BME280;66538;53.150;18.160;2023-07-13T13:31:52;101028.87;;;30.68;39.81